sensor_id;sensor_type;location;lat;lon;timestamp;pressure;altitude;pressure_sealevel;temperature;humidity
79376;BME280;68846;53.150;18.136;2023-04-01T00:01:24;99094.89;;;10.69;76.62
79376;BME280;68846;53.150;18.136;2023-04-01T00:03:51;99097.64;;;10.60;76.59
79376;BME280;68846;53.150;18.136;2023-04-01T00:06:20;99087.96;;;10.49;76.81
79376;BME280;68846;53.150;18.136;2023-04-01T00:08:47;99098.55;;;10.46;76.99
79376;BME280;68846;53.150;18.136;2023-04-01T00:11:14;99093.16;;;10.41;76.99
79376;BME280;68846;53.150;18.136;2023-04-01T00:13:41;99093.70;;;10.40;77.11
79376;BME280;68846;53.150;18.136;2023-04-01T00:16:09;99093.35;;;10.41;77.07
79376;BME280;68846;53.150;18.136;2023-04-01T00:18:36;99095.42;;;10.44;77.03
79376;BME280;68846;53.150;18.136;2023-04-01T00:21:03;99095.55;;;10.47;77.18
79376;BME280;68846;53.150;18.136;2023-04-01T00:23:31;99092.27;;;10.42;77.09
79376;BME280;68846;53.150;18.136;2023-04-01T00:26:02;99092.90;;;10.34;77.36
79376;BME280;68846;53.150;18.136;2023-04-01T00:28:29;99092.33;;;10.26;77.42
79376;BME280;68846;53.150;18.136;2023-04-01T00:30:56;99091.33;;;10.19;77.68
79376;BME280;68846;53.150;18.136;2023-04-01T00:33:23;99089.80;;;10.14;77.87
79376;BME280;68846;53.150;18.136;2023-04-01T00:35:50;99089.27;;;10.13;78.12
79376;BME280;68846;53.150;18.136;2023-04-01T00:38:17;99087.70;;;10.12;77.86
79376;BME280;68846;53.150;18.136;2023-04-01T00:40:44;99087.38;;;10.11;78.04
79376;BME280;68846;53.150;18.136;2023-04-01T00:43:18;99088.42;;;10.11;78.12
79376;BME280;68846;53.150;18.136;2023-04-01T00:45:47;99089.13;;;10.11;78.08
79376;BME280;68846;53.150;18.136;2023-04-01T00:48:20;99083.16;;;10.11;78.16
79376;BME280;68846;53.150;18.136;2023-04-01T00:50:56;99086.52;;;10.10;78.16
79376;BME280;68846;53.150;18.136;2023-04-01T00:53:25;99081.95;;;10.10;78.37
79376;BME280;68846;53.150;18.136;2023-04-01T00:56:17;99081.27;;;10.06;78.53
79376;BME280;68846;53.150;18.136;2023-04-01T00:58:56;99085.55;;;10.03;78.46
79376;BME280;68846;53.150;18.136;2023-04-01T01:01:25;99087.88;;;9.99;78.51
79376;BME280;68846;53.150;18.136;2023-04-01T01:03:52;99082.48;;;9.95;78.60
79376;BME280;68846;53.150;18.136;2023-04-01T01:06:36;99080.60;;;9.91;78.72
79376;BME280;68846;53.150;18.136;2023-04-01T01:09:33;99077.30;;;9.86;78.57
79376;BME280;68846;53.150;18.136;2023-04-01T01:12:18;99076.08;;;9.86;78.74
79376;BME280;68846;53.150;18.136;2023-04-01T01:35:33;99081.23;;;9.67;79.23
79376;BME280;68846;53.150;18.136;2023-04-01T01:38:06;99084.08;;;9.63;79.34
79376;BME280;68846;53.150;18.136;2023-04-01T01:40:38;99080.23;;;9.60;79.32
79376;BME280;68846;53.150;18.136;2023-04-01T01:43:09;99079.70;;;9.59;79.54
79376;BME280;68846;53.150;18.136;2023-04-01T01:45:43;99081.13;;;9.59;79.31
79376;BME280;68846;53.150;18.136;2023-04-01T01:48:13;99076.63;;;9.53;79.70
79376;BME280;68846;53.150;18.136;2023-04-01T01:50:43;99079.83;;;9.49;79.36
79376;BME280;68846;53.150;18.136;2023-04-01T01:53:13;99078.59;;;9.50;79.62
79376;BME280;68846;53.150;18.136;2023-04-01T01:55:42;99079.98;;;9.50;79.35
79376;BME280;68846;53.150;18.136;2023-04-01T02:00:53;99068.13;;;9.41;79.31
79376;BME280;68846;53.150;18.136;2023-04-01T02:03:24;99079.19;;;9.44;79.31
79376;BME280;68846;53.150;18.136;2023-04-01T02:05:54;99078.99;;;9.45;79.36
79376;BME280;68846;53.150;18.136;2023-04-01T02:08:27;99078.63;;;9.46;79.41
79376;BME280;68846;53.150;18.136;2023-04-01T02:11:02;99080.04;;;9.46;79.35
79376;BME280;68846;53.150;18.136;2023-04-01T02:13:39;99079.55;;;9.44;79.48
79376;BME280;68846;53.150;18.136;2023-04-01T02:16:13;99082.54;;;9.43;79.28
79376;BME280;68846;53.150;18.136;2023-04-01T02:18:43;99083.21;;;9.44;79.44
79376;BME280;68846;53.150;18.136;2023-04-01T02:21:12;99080.90;;;9.46;79.21
79376;BME280;68846;53.150;18.136;2023-04-01T02:23:40;99077.23;;;9.45;79.49
79376;BME280;68846;53.150;18.136;2023-04-01T02:26:08;99079.55;;;9.43;79.40
79376;BME280;68846;53.150;18.136;2023-04-01T02:28:38;99082.55;;;9.40;79.45
79376;BME280;68846;53.150;18.136;2023-04-01T02:31:06;99079.94;;;9.38;79.48
79376;BME280;68846;53.150;18.136;2023-04-01T02:33:34;99082.02;;;9.41;79.32
79376;BME280;68846;53.150;18.136;2023-04-01T02:36:01;99082.54;;;9.43;79.61
79376;BME280;68846;53.150;18.136;2023-04-01T02:38:28;99083.77;;;9.40;79.51
79376;BME280;68846;53.150;18.136;2023-04-01T02:40:59;99084.21;;;9.32;79.20
79376;BME280;68846;53.150;18.136;2023-04-01T02:43:27;99087.44;;;9.25;79.56
79376;BME280;68846;53.150;18.136;2023-04-01T02:45:54;99088.71;;;9.20;79.72
79376;BME280;68846;53.150;18.136;2023-04-01T02:48:21;99088.71;;;9.20;79.99
79376;BME280;68846;53.150;18.136;2023-04-01T02:50:48;99094.17;;;9.20;79.87
79376;BME280;68846;53.150;18.136;2023-04-01T02:53:16;99095.59;;;9.17;79.98
79376;BME280;68846;53.150;18.136;2023-04-01T02:55:43;99093.83;;;9.16;79.77
79376;BME280;68846;53.150;18.136;2023-04-01T02:58:11;99100.20;;;9.12;79.86
79376;BME280;68846;53.150;18.136;2023-04-01T03:00:39;99102.67;;;9.09;79.92
79376;BME280;68846;53.150;18.136;2023-04-01T03:03:06;99102.35;;;9.08;80.07
79376;BME280;68846;53.150;18.136;2023-04-01T03:05:33;99102.17;;;9.07;80.38
79376;BME280;68846;53.150;18.136;2023-04-01T03:08:00;99104.83;;;9.04;80.10
79376;BME280;68846;53.150;18.136;2023-04-01T03:10:27;99106.46;;;9.00;80.11
79376;BME280;68846;53.150;18.136;2023-04-01T03:12:53;99108.73;;;9.01;80.41
79376;BME280;68846;53.150;18.136;2023-04-01T03:15:20;99113.27;;;9.03;80.39
79376;BME280;68846;53.150;18.136;2023-04-01T03:17:47;99113.42;;;9.06;80.14
79376;BME280;68846;53.150;18.136;2023-04-01T03:20:14;99118.88;;;9.07;80.26
79376;BME280;68846;53.150;18.136;2023-04-01T03:22:41;99118.17;;;9.07;80.64
79376;BME280;68846;53.150;18.136;2023-04-01T03:25:08;99119.23;;;9.07;80.18
79376;BME280;68846;53.150;18.136;2023-04-01T03:27:36;99119.92;;;9.04;80.03
79376;BME280;68846;53.150;18.136;2023-04-01T03:30:04;99111.22;;;8.97;80.06
79376;BME280;68846;53.150;18.136;2023-04-01T03:32:35;99122.09;;;8.99;80.21
79376;BME280;68846;53.150;18.136;2023-04-01T03:35:02;99125.27;;;8.96;80.26
79376;BME280;68846;53.150;18.136;2023-04-01T03:37:29;99133.02;;;8.92;80.21
79376;BME280;68846;53.150;18.136;2023-04-01T03:39:56;99132.52;;;8.88;80.01
79376;BME280;68846;53.150;18.136;2023-04-01T03:42:23;99128.15;;;8.85;80.13
79376;BME280;68846;53.150;18.136;2023-04-01T03:44:50;99130.61;;;8.84;80.03
79376;BME280;68846;53.150;18.136;2023-04-01T03:47:16;99132.54;;;8.85;80.22
79376;BME280;68846;53.150;18.136;2023-04-01T03:49:43;99136.42;;;8.82;80.20
79376;BME280;68846;53.150;18.136;2023-04-01T03:52:11;99138.89;;;8.82;79.84
79376;BME280;68846;53.150;18.136;2023-04-01T03:54:38;99139.23;;;8.80;80.14
79376;BME280;68846;53.150;18.136;2023-04-01T03:57:05;99141.73;;;8.76;79.97
79376;BME280;68846;53.150;18.136;2023-04-01T03:59:32;99140.89;;;8.70;79.99
79376;BME280;68846;53.150;18.136;2023-04-01T04:01:59;99142.67;;;8.66;80.10
79376;BME280;68846;53.150;18.136;2023-04-01T04:04:27;99146.38;;;8.63;80.32
79376;BME280;68846;53.150;18.136;2023-04-01T04:06:54;99150.05;;;8.62;80.23
79376;BME280;68846;53.150;18.136;2023-04-01T04:09:22;99153.92;;;8.62;80.13
79376;BME280;68846;53.150;18.136;2023-04-01T04:11:49;99160.05;;;8.65;79.91
79376;BME280;68846;53.150;18.136;2023-04-01T04:14:16;99166.19;;;8.66;80.17
79376;BME280;68846;53.150;18.136;2023-04-01T04:16:43;99169.00;;;8.65;80.10
79376;BME280;68846;53.150;18.136;2023-04-01T04:19:10;99169.53;;;8.63;79.97
79376;BME280;68846;53.150;18.136;2023-04-01T04:21:37;99171.14;;;8.57;79.77
79376;BME280;68846;53.150;18.136;2023-04-01T04:24:06;99175.22;;;8.49;79.92
79376;BME280;68846;53.150;18.136;2023-04-01T04:26:51;99177.20;;;8.39;79.97
79376;BME280;68846;53.150;18.136;2023-04-01T04:29:18;99176.84;;;8.34;80.27
79376;BME280;68846;53.150;18.136;2023-04-01T04:31:46;99177.02;;;8.27;80.51
79376;BME280;68846;53.150;18.136;2023-04-01T04:34:13;99180.04;;;8.22;80.43
79376;BME280;68846;53.150;18.136;2023-04-01T04:36:40;99184.80;;;8.14;80.45
79376;BME280;68846;53.150;18.136;2023-04-01T04:39:08;99185.00;;;8.10;80.65
79376;BME280;68846;53.150;18.136;2023-04-01T04:41:37;99187.62;;;8.10;80.53
79376;BME280;68846;53.150;18.136;2023-04-01T04:44:04;99190.25;;;8.09;80.60
79376;BME280;68846;53.150;18.136;2023-04-01T04:46:32;99181.52;;;8.01;80.78
79376;BME280;68846;53.150;18.136;2023-04-01T04:49:06;99193.43;;;7.98;80.44
79376;BME280;68846;53.150;18.136;2023-04-01T04:51:33;99191.35;;;7.91;81.10
79376;BME280;68846;53.150;18.136;2023-04-01T04:54:03;99196.45;;;7.86;80.63
79376;BME280;68846;53.150;18.136;2023-04-01T04:56:41;99200.65;;;7.87;80.70
79376;BME280;68846;53.150;18.136;2023-04-01T04:59:09;99205.02;;;7.89;80.67
79376;BME280;68846;53.150;18.136;2023-04-01T05:01:43;99206.58;;;7.91;80.79
79376;BME280;68846;53.150;18.136;2023-04-01T05:04:10;99210.98;;;7.90;80.62
79376;BME280;68846;53.150;18.136;2023-04-01T05:06:37;99211.52;;;7.87;80.77
79376;BME280;68846;53.150;18.136;2023-04-01T05:09:05;99217.11;;;7.84;80.47
79376;BME280;68846;53.150;18.136;2023-04-01T05:11:32;99220.27;;;7.78;80.61
79376;BME280;68846;53.150;18.136;2023-04-01T05:13:59;99220.46;;;7.74;80.21
79376;BME280;68846;53.150;18.136;2023-04-01T05:16:26;99224.67;;;7.68;80.22
79376;BME280;68846;53.150;18.136;2023-04-01T05:18:53;99230.80;;;7.65;80.33
79376;BME280;68846;53.150;18.136;2023-04-01T05:21:20;99234.31;;;7.64;80.24
79376;BME280;68846;53.150;18.136;2023-04-01T05:23:47;99234.66;;;7.60;80.28
79376;BME280;68846;53.150;18.136;2023-04-01T05:26:14;99233.44;;;7.56;80.02
79376;BME280;68846;53.150;18.136;2023-04-01T05:28:41;99240.28;;;7.56;80.29
79376;BME280;68846;53.150;18.136;2023-04-01T05:31:08;99242.55;;;7.57;80.25
79376;BME280;68846;53.150;18.136;2023-04-01T05:33:38;99244.65;;;7.49;80.26
79376;BME280;68846;53.150;18.136;2023-04-01T05:36:11;99248.69;;;7.46;80.37
79376;BME280;68846;53.150;18.136;2023-04-01T05:38:39;99246.39;;;7.41;80.44
79376;BME280;68846;53.150;18.136;2023-04-01T05:41:09;99247.27;;;7.35;80.51
79376;BME280;68846;53.150;18.136;2023-04-01T05:43:39;99248.84;;;7.29;80.58
79376;BME280;68846;53.150;18.136;2023-04-01T05:46:27;99250.05;;;7.24;80.71
79376;BME280;68846;53.150;18.136;2023-04-01T05:49:04;99250.76;;;7.20;80.70
79376;BME280;68846;53.150;18.136;2023-04-01T05:51:31;99248.66;;;7.22;80.68
79376;BME280;68846;53.150;18.136;2023-04-01T05:53:58;99254.61;;;7.24;80.82
79376;BME280;68846;53.150;18.136;2023-04-01T05:56:25;99259.70;;;7.29;80.68
79376;BME280;68846;53.150;18.136;2023-04-01T05:58:53;99259.69;;;7.30;80.24
79376;BME280;68846;53.150;18.136;2023-04-01T06:01:21;99260.94;;;7.33;80.36
79376;BME280;68846;53.150;18.136;2023-04-01T06:03:48;99259.70;;;7.34;80.62
79376;BME280;68846;53.150;18.136;2023-04-01T06:06:24;99260.94;;;7.33;80.32
79376;BME280;68846;53.150;18.136;2023-04-01T06:08:52;99261.09;;;7.31;80.38
79376;BME280;68846;53.150;18.136;2023-04-01T06:17:12;99273.70;;;7.30;80.59
79376;BME280;68846;53.150;18.136;2023-04-01T06:22:35;99280.55;;;7.34;80.23
79376;BME280;68846;53.150;18.136;2023-04-01T06:51:10;99296.67;;;7.52;80.12
79376;BME280;68846;53.150;18.136;2023-04-01T06:56:37;99295.80;;;7.47;80.20
79376;BME280;68846;53.150;18.136;2023-04-01T06:59:22;99311.91;;;7.55;80.40
79376;BME280;68846;53.150;18.136;2023-04-01T07:01:59;99314.02;;;7.54;80.30
79376;BME280;68846;53.150;18.136;2023-04-01T07:04:34;99311.55;;;7.47;80.20
79376;BME280;68846;53.150;18.136;2023-04-01T07:09:51;99319.46;;;7.50;80.25
79376;BME280;68846;53.150;18.136;2023-04-01T07:12:36;99322.61;;;7.52;80.53
79376;BME280;68846;53.150;18.136;2023-04-01T07:15:43;99326.13;;;7.57;80.32
79376;BME280;68846;53.150;18.136;2023-04-01T07:21:00;99340.65;;;7.55;80.07
79376;BME280;68846;53.150;18.136;2023-04-01T07:23:42;99342.58;;;7.53;80.19
79376;BME280;68846;53.150;18.136;2023-04-01T07:26:31;99344.33;;;7.50;80.53
79376;BME280;68846;53.150;18.136;2023-04-01T07:29:12;99346.77;;;7.46;80.50
79376;BME280;68846;53.150;18.136;2023-04-01T07:51:34;99375.67;;;7.45;79.65
79376;BME280;68846;53.150;18.136;2023-04-01T08:03:05;99385.29;;;7.41;79.87
79376;BME280;68846;53.150;18.136;2023-04-01T08:05:53;99387.58;;;7.39;79.59
79376;BME280;68846;53.150;18.136;2023-04-01T08:14:38;99400.88;;;7.38;79.53
79376;BME280;68846;53.150;18.136;2023-04-01T08:17:31;99407.02;;;7.41;79.71
79376;BME280;68846;53.150;18.136;2023-04-01T08:20:29;99409.46;;;7.41;79.50
79376;BME280;68846;53.150;18.136;2023-04-01T08:23:05;99413.32;;;7.41;79.70
79376;BME280;68846;53.150;18.136;2023-04-01T08:25:47;99412.09;;;7.41;79.57
79376;BME280;68846;53.150;18.136;2023-04-01T08:31:00;99419.64;;;7.50;79.52
79376;BME280;68846;53.150;18.136;2023-04-01T08:33:31;99422.65;;;7.57;79.10
79376;BME280;68846;53.150;18.136;2023-04-01T08:36:15;99426.33;;;7.60;79.05
79376;BME280;68846;53.150;18.136;2023-04-01T08:38:51;99425.65;;;7.66;79.31
79376;BME280;68846;53.150;18.136;2023-04-01T08:59:30;99445.88;;;7.96;78.25
79376;BME280;68846;53.150;18.136;2023-04-01T09:20:00;99468.19;;;8.30;77.40
79376;BME280;68846;53.150;18.136;2023-04-01T09:22:41;99471.88;;;8.28;77.40
79376;BME280;68846;53.150;18.136;2023-04-01T09:30:33;99478.58;;;8.40;77.29
79376;BME280;68846;53.150;18.136;2023-04-01T09:38:57;99490.51;;;8.46;76.36
79376;BME280;68846;53.150;18.136;2023-04-01T09:41:30;99490.85;;;8.39;76.41
79376;BME280;68846;53.150;18.136;2023-04-01T09:44:19;99496.27;;;8.35;76.63
79376;BME280;68846;53.150;18.136;2023-04-01T09:47:42;99501.52;;;8.31;76.95
79376;BME280;68846;53.150;18.136;2023-04-01T09:50:38;99502.04;;;8.31;77.10
79376;BME280;68846;53.150;18.136;2023-04-01T09:53:18;99510.45;;;8.34;76.66
79376;BME280;68846;53.150;18.136;2023-04-01T10:26:46;99532.61;;;8.62;76.20
79376;BME280;68846;53.150;18.136;2023-04-01T10:30:07;99536.30;;;8.63;75.86
79376;BME280;68846;53.150;18.136;2023-04-01T10:38:20;99537.54;;;8.63;76.37
79376;BME280;68846;53.150;18.136;2023-04-01T11:22:43;99570.36;;;8.67;74.36
79376;BME280;68846;53.150;18.136;2023-04-01T11:25:56;99588.09;;;8.70;74.88
79376;BME280;68846;53.150;18.136;2023-04-01T11:29:04;99594.40;;;8.66;74.65
79376;BME280;68846;53.150;18.136;2023-04-01T11:31:45;99596.68;;;8.67;74.78
79376;BME280;68846;53.150;18.136;2023-04-01T11:34:27;99599.67;;;8.72;74.33
79376;BME280;68846;53.150;18.136;2023-04-01T11:54:37;99617.05;;;8.65;73.78
79376;BME280;68846;53.150;18.136;2023-04-01T11:57:43;99620.91;;;8.68;73.79
79376;BME280;68846;53.150;18.136;2023-04-01T12:06:02;99620.22;;;8.71;73.21
79376;BME280;68846;53.150;18.136;2023-04-01T12:11:35;99630.95;;;8.88;73.41
79376;BME280;68846;53.150;18.136;2023-04-01T12:17:25;99638.52;;;8.94;72.85
79376;BME280;68846;53.150;18.136;2023-04-01T12:19:58;99636.57;;;8.96;72.19
79376;BME280;68846;53.150;18.136;2023-04-01T12:28:49;99652.73;;;8.96;72.12
79376;BME280;68846;53.150;18.136;2023-04-01T12:45:35;99669.23;;;8.90;71.42
79376;BME280;68846;53.150;18.136;2023-04-01T12:56:23;99675.37;;;8.96;71.66
79376;BME280;68846;53.150;18.136;2023-04-01T13:05:23;99692.95;;;9.07;71.28
79376;BME280;68846;53.150;18.136;2023-04-01T13:10:54;99704.01;;;9.09;71.07
79376;BME280;68846;53.150;18.136;2023-04-01T13:16:33;99711.55;;;8.98;70.82
79376;BME280;68846;53.150;18.136;2023-04-01T13:19:22;99712.95;;;8.94;70.71
79376;BME280;68846;53.150;18.136;2023-04-01T13:27:23;99723.46;;;8.83;70.36
79376;BME280;68846;53.150;18.136;2023-04-01T13:43:26;99738.00;;;8.71;70.50
79376;BME280;68846;53.150;18.136;2023-04-01T14:00:20;99766.99;;;8.43;69.94
79376;BME280;68846;53.150;18.136;2023-04-01T14:19:41;99791.36;;;8.38;70.18
79376;BME280;68846;53.150;18.136;2023-04-01T14:48:23;99821.95;;;7.99;69.66
79376;BME280;68846;53.150;18.136;2023-04-01T14:50:54;99825.79;;;7.97;69.31
79376;BME280;68846;53.150;18.136;2023-04-01T14:55:57;99829.26;;;7.92;69.65
79376;BME280;68846;53.150;18.136;2023-04-01T14:58:49;99837.45;;;7.87;69.75
79376;BME280;68846;53.150;18.136;2023-04-01T15:20:59;99868.87;;;7.54;69.30
79376;BME280;68846;53.150;18.136;2023-04-01T15:23:34;99879.33;;;7.48;69.50
79376;BME280;68846;53.150;18.136;2023-04-01T15:26:16;99882.63;;;7.45;69.84
79376;BME280;68846;53.150;18.136;2023-04-01T15:32:02;99892.12;;;7.33;69.92
79376;BME280;68846;53.150;18.136;2023-04-01T15:34:49;99900.45;;;7.27;70.14
79376;BME280;68846;53.150;18.136;2023-04-01T15:40:22;99907.02;;;7.19;70.21
79376;BME280;68846;53.150;18.136;2023-04-01T16:00:11;99929.80;;;6.80;70.59
79376;BME280;68846;53.150;18.136;2023-04-01T16:05:43;99937.14;;;6.67;70.12
79376;BME280;68846;53.150;18.136;2023-04-01T16:11:12;99933.00;;;6.37;70.87
79376;BME280;68846;53.150;18.136;2023-04-01T16:22:31;99975.34;;;6.38;71.11
79376;BME280;68846;53.150;18.136;2023-04-01T16:30:57;99988.90;;;6.24;71.03
79376;BME280;68846;53.150;18.136;2023-04-01T16:36:42;100002.09;;;6.07;71.82
79376;BME280;68846;53.150;18.136;2023-04-01T16:42:34;99999.60;;;6.05;72.03
79376;BME280;68846;53.150;18.136;2023-04-01T16:47:40;100020.90;;;6.13;71.75
79376;BME280;68846;53.150;18.136;2023-04-01T16:53:17;100028.77;;;6.04;71.96
79376;BME280;68846;53.150;18.136;2023-04-01T16:58:39;100034.13;;;5.84;72.54
79376;BME280;68846;53.150;18.136;2023-04-01T17:01:24;100039.06;;;5.78;72.52
79376;BME280;68846;53.150;18.136;2023-04-01T17:04:10;100045.11;;;5.74;72.37
79376;BME280;68846;53.150;18.136;2023-04-01T17:09:25;100052.05;;;5.72;71.81
79376;BME280;68846;53.150;18.136;2023-04-01T17:25:25;100074.59;;;5.47;71.40
79376;BME280;68846;53.150;18.136;2023-04-01T17:30:39;100085.02;;;5.37;71.41
79376;BME280;68846;53.150;18.136;2023-04-01T17:42:04;100095.07;;;5.34;71.44
79376;BME280;68846;53.150;18.136;2023-04-01T17:47:28;100114.09;;;5.41;71.52
79376;BME280;68846;53.150;18.136;2023-04-01T17:50:20;100113.08;;;5.35;71.38
79376;BME280;68846;53.150;18.136;2023-04-01T17:55:55;100126.91;;;5.22;71.70
79376;BME280;68846;53.150;18.136;2023-04-01T17:58:59;100131.54;;;5.18;71.77
79376;BME280;68846;53.150;18.136;2023-04-01T18:01:49;100138.77;;;5.14;71.92
79376;BME280;68846;53.150;18.136;2023-04-01T18:10:16;100146.71;;;5.03;72.48
79376;BME280;68846;53.150;18.136;2023-04-01T18:15:42;100154.63;;;5.05;72.29
79376;BME280;68846;53.150;18.136;2023-04-01T18:24:16;100168.35;;;4.96;72.21
79376;BME280;68846;53.150;18.136;2023-04-01T18:27:00;100166.17;;;4.93;72.21
79376;BME280;68846;53.150;18.136;2023-04-01T18:29:46;100173.16;;;4.87;72.25
79376;BME280;68846;53.150;18.136;2023-04-01T18:35:28;100179.06;;;4.72;72.69
79376;BME280;68846;53.150;18.136;2023-04-01T18:38:06;100182.77;;;4.67;72.92
79376;BME280;68846;53.150;18.136;2023-04-01T18:40:43;100188.89;;;4.68;73.07
79376;BME280;68846;53.150;18.136;2023-04-01T18:46:46;100196.38;;;4.73;72.62
79376;BME280;68846;53.150;18.136;2023-04-01T18:49:46;100196.02;;;4.73;72.67
79376;BME280;68846;53.150;18.136;2023-04-01T18:52:25;100201.58;;;4.72;72.70
79376;BME280;68846;53.150;18.136;2023-04-01T18:57:52;100212.27;;;4.68;72.89
79376;BME280;68846;53.150;18.136;2023-04-01T19:00:21;100220.68;;;4.69;73.05
79376;BME280;68846;53.150;18.136;2023-04-01T19:05:24;100225.94;;;4.63;73.25
79376;BME280;68846;53.150;18.136;2023-04-01T19:07:54;100227.52;;;4.64;73.27
79376;BME280;68846;53.150;18.136;2023-04-01T19:10:36;100225.09;;;4.65;73.15
79376;BME280;68846;53.150;18.136;2023-04-01T19:21:26;100246.23;;;4.72;72.98
79376;BME280;68846;53.150;18.136;2023-04-01T19:36:02;100270.15;;;4.61;73.50
79376;BME280;68846;53.150;18.136;2023-04-01T19:38:38;100271.77;;;4.56;73.94
79376;BME280;68846;53.150;18.136;2023-04-01T19:41:39;100275.19;;;4.54;74.42
79376;BME280;68846;53.150;18.136;2023-04-01T19:46:55;100283.75;;;4.54;74.83
79376;BME280;68846;53.150;18.136;2023-04-01T19:50:09;100285.60;;;4.51;74.95
79376;BME280;68846;53.150;18.136;2023-04-01T19:52:37;100285.34;;;4.49;75.24
79376;BME280;68846;53.150;18.136;2023-04-01T19:58:00;100296.99;;;4.42;75.56
79376;BME280;68846;53.150;18.136;2023-04-01T20:00:47;100297.54;;;4.37;75.93
79376;BME280;68846;53.150;18.136;2023-04-01T20:03:34;100303.02;;;4.33;76.04
79376;BME280;68846;53.150;18.136;2023-04-01T20:08:51;100310.50;;;4.33;76.06
79376;BME280;68846;53.150;18.136;2023-04-01T20:17:41;100321.83;;;4.33;75.99
79376;BME280;68846;53.150;18.136;2023-04-01T20:27:47;100337.27;;;4.14;76.36
79376;BME280;68846;53.150;18.136;2023-04-01T20:36:16;100349.66;;;4.19;76.11
79376;BME280;68846;53.150;18.136;2023-04-01T20:41:59;100343.27;;;4.21;75.96
79376;BME280;68846;53.150;18.136;2023-04-01T20:44:52;100343.59;;;4.20;75.76
79376;BME280;68846;53.150;18.136;2023-04-01T20:47:30;100345.66;;;4.20;76.12
79376;BME280;68846;53.150;18.136;2023-04-01T20:53:17;100353.21;;;4.16;76.11
79376;BME280;68846;53.150;18.136;2023-04-01T21:02:03;100356.19;;;4.11;75.98
79376;BME280;68846;53.150;18.136;2023-04-01T21:15:53;100370.48;;;4.22;75.89
79376;BME280;68846;53.150;18.136;2023-04-01T21:26:58;100384.44;;;4.17;75.82
79376;BME280;68846;53.150;18.136;2023-04-01T21:32:14;100389.27;;;4.15;75.77
79376;BME280;68846;53.150;18.136;2023-04-01T21:35:00;100392.83;;;4.18;75.80
79376;BME280;68846;53.150;18.136;2023-04-01T22:00:14;100402.75;;;4.12;76.30
79376;BME280;68846;53.150;18.136;2023-04-01T22:10:42;100411.77;;;4.21;75.74
79376;BME280;68846;53.150;18.136;2023-04-01T22:13:18;100416.98;;;4.21;75.72
79376;BME280;68846;53.150;18.136;2023-04-01T22:15:56;100414.70;;;4.15;75.61
79376;BME280;68846;53.150;18.136;2023-04-01T22:18:34;100418.16;;;4.09;75.85
79376;BME280;68846;53.150;18.136;2023-04-01T22:21:09;100418.89;;;4.04;75.84
79376;BME280;68846;53.150;18.136;2023-04-01T22:23:47;100420.30;;;4.00;76.04
79376;BME280;68846;53.150;18.136;2023-04-01T22:26:36;100423.54;;;3.98;75.85
79376;BME280;68846;53.150;18.136;2023-04-01T22:29:17;100430.60;;;4.01;76.06
79376;BME280;68846;53.150;18.136;2023-04-01T22:40:44;100439.59;;;4.08;75.91
79376;BME280;68846;53.150;18.136;2023-04-01T22:43:38;100447.87;;;4.07;75.51
79376;BME280;68846;53.150;18.136;2023-04-01T22:49:14;100450.74;;;4.04;75.85
79376;BME280;68846;53.150;18.136;2023-04-01T22:52:03;100447.80;;;3.93;75.96
79376;BME280;68846;53.150;18.136;2023-04-01T22:54:36;100459.45;;;3.93;75.82
79376;BME280;68846;53.150;18.136;2023-04-01T22:57:28;100460.41;;;3.91;75.81
79376;BME280;68846;53.150;18.136;2023-04-01T23:00:03;100462.58;;;3.92;75.86
79376;BME280;68846;53.150;18.136;2023-04-01T23:05:49;100464.42;;;4.01;75.50
79376;BME280;68846;53.150;18.136;2023-04-01T23:11:39;100469.23;;;4.04;75.24
79376;BME280;68846;53.150;18.136;2023-04-01T23:19:43;100474.48;;;4.05;75.26
79376;BME280;68846;53.150;18.136;2023-04-01T23:24:59;100482.99;;;3.93;75.05
79376;BME280;68846;53.150;18.136;2023-04-01T23:27:47;100468.92;;;3.85;75.16
79376;BME280;68846;53.150;18.136;2023-04-01T23:35:54;100495.73;;;4.05;74.92
79376;BME280;68846;53.150;18.136;2023-04-01T23:38:24;100487.23;;;4.01;74.83
79376;BME280;68846;53.150;18.136;2023-04-01T23:40:53;100498.66;;;4.09;74.74
79376;BME280;68846;53.150;18.136;2023-04-01T23:43:25;100504.88;;;4.07;74.55
79376;BME280;68846;53.150;18.136;2023-04-01T23:46:00;100507.97;;;4.00;74.61
79376;BME280;68846;53.150;18.136;2023-04-01T23:48:36;100510.52;;;3.99;74.91
79376;BME280;68846;53.150;18.136;2023-04-01T23:53:46;100520.92;;;3.97;74.78
79376;BME280;68846;53.150;18.136;2023-04-01T23:56:17;100523.22;;;3.93;74.93
79376;BME280;68846;53.150;18.136;2023-04-01T23:58:48;100520.84;;;3.90;74.97
